Open Full Screen Window  High Contrast Mode
Wind Gusting 00 knots
05
May 28, 2015 11:57 AM EDT
Weather Information
Wind Direction
  080 °
Wind Speed
  05 kt (6 mph)
Wind Gust
  00 kt (0 mph)
Altimeter
30.28 in
Visibility
10 SM
Temperature
22° C
72° F
Dewpoint
11° C
52° F
Humidity
50%
1hr Rain Fall
00.00 in.
24hr Rain Fall
01.42 in.
Sky Condition
Clear
VFR

METAR KPOV 281557Z AUTO 08005KT 10SM CLR 22/11 A3028 RMK AO2 T02190112

*Background is not an actual portrayal of the airport.